sensor_id;sensor_type;location;lat;lon;timestamp;P1;durP1;ratioP1;P2;durP2;ratioP2
66970;SDS011;53901;51.466;-2.588;2022-10-04T00:07:26;6.28;;;2.38;;
66970;SDS011;53901;51.466;-2.588;2022-10-04T00:09:54;5.95;;;2.78;;
66970;SDS011;53901;51.466;-2.588;2022-10-04T00:12:26;5.78;;;2.83;;
66970;SDS011;53901;51.466;-2.588;2022-10-04T00:14:56;6.93;;;3.38;;
66970;SDS011;53901;51.466;-2.588;2022-10-04T00:17:24;8.02;;;3.35;;
66970;SDS011;53901;51.466;-2.588;2022-10-04T00:19:52;6.93;;;2.97;;
66970;SDS011;53901;51.466;-2.588;2022-10-04T00:25:17;5.28;;;2.67;;
66970;SDS011;53901;51.466;-2.588;2022-10-04T00:27:38;6.30;;;2.83;;
66970;SDS011;53901;51.466;-2.588;2022-10-04T00:40:25;7.28;;;3.10;;
66970;SDS011;53901;51.466;-2.588;2022-10-04T00:45:33;6.65;;;2.90;;
66970;SDS011;53901;51.466;-2.588;2022-10-04T00:48:44;6.72;;;2.70;;
66970;SDS011;53901;51.466;-2.588;2022-10-04T00:56:19;4.18;;;2.75;;
66970;SDS011;53901;51.466;-2.588;2022-10-04T01:01:19;6.20;;;2.65;;
66970;SDS011;53901;51.466;-2.588;2022-10-04T01:03:48;5.57;;;2.70;;
66970;SDS011;53901;51.466;-2.588;2022-10-04T01:06:14;5.22;;;2.65;;
66970;SDS011;53901;51.466;-2.588;2022-10-04T01:08:43;4.13;;;2.60;;
66970;SDS011;53901;51.466;-2.588;2022-10-04T01:16:39;4.72;;;2.53;;
66970;SDS011;53901;51.466;-2.588;2022-10-04T01:21:58;5.75;;;3.03;;
66970;SDS011;53901;51.466;-2.588;2022-10-04T01:24:34;6.88;;;2.53;;
66970;SDS011;53901;51.466;-2.588;2022-10-04T01:27:01;6.60;;;2.65;;
66970;SDS011;53901;51.466;-2.588;2022-10-04T01:29:27;4.57;;;2.40;;
66970;SDS011;53901;51.466;-2.588;2022-10-04T01:31:54;3.42;;;2.22;;
66970;SDS011;53901;51.466;-2.588;2022-10-04T01:34:25;5.28;;;2.67;;
66970;SDS011;53901;51.466;-2.588;2022-10-04T01:36:52;5.07;;;2.50;;
66970;SDS011;53901;51.466;-2.588;2022-10-04T01:39:20;4.20;;;2.55;;
66970;SDS011;53901;51.466;-2.588;2022-10-04T01:46:46;4.53;;;2.33;;
66970;SDS011;53901;51.466;-2.588;2022-10-04T01:49:15;3.72;;;2.25;;
66970;SDS011;53901;51.466;-2.588;2022-10-04T01:51:44;5.55;;;2.72;;
66970;SDS011;53901;51.466;-2.588;2022-10-04T01:54:36;5.82;;;2.53;;
66970;SDS011;53901;51.466;-2.588;2022-10-04T01:57:06;4.55;;;2.47;;
66970;SDS011;53901;51.466;-2.588;2022-10-04T01:59:40;6.50;;;2.33;;
66970;SDS011;53901;51.466;-2.588;2022-10-04T02:02:33;6.15;;;2.30;;
66970;SDS011;53901;51.466;-2.588;2022-10-04T02:05:11;5.90;;;2.53;;
66970;SDS011;53901;51.466;-2.588;2022-10-04T02:07:40;7.65;;;2.35;;
66970;SDS011;53901;51.466;-2.588;2022-10-04T02:10:10;4.63;;;2.17;;
66970;SDS011;53901;51.466;-2.588;2022-10-04T02:12:42;3.67;;;2.20;;
66970;SDS011;53901;51.466;-2.588;2022-10-04T02:15:10;5.47;;;2.00;;
66970;SDS011;53901;51.466;-2.588;2022-10-04T02:17:40;4.50;;;2.20;;
66970;SDS011;53901;51.466;-2.588;2022-10-04T02:20:08;3.28;;;1.90;;
66970;SDS011;53901;51.466;-2.588;2022-10-04T02:22:38;3.72;;;1.83;;
66970;SDS011;53901;51.466;-2.588;2022-10-04T02:25:04;4.45;;;2.10;;
66970;SDS011;53901;51.466;-2.588;2022-10-04T02:27:29;5.30;;;2.10;;
66970;SDS011;53901;51.466;-2.588;2022-10-04T02:29:59;5.07;;;2.17;;
66970;SDS011;53901;51.466;-2.588;2022-10-04T02:32:30;5.93;;;2.25;;
66970;SDS011;53901;51.466;-2.588;2022-10-04T02:35:15;4.90;;;2.25;;
66970;SDS011;53901;51.466;-2.588;2022-10-04T02:37:41;2.70;;;2.00;;
66970;SDS011;53901;51.466;-2.588;2022-10-04T02:40:08;5.63;;;2.13;;
66970;SDS011;53901;51.466;-2.588;2022-10-04T02:42:45;9.40;;;3.10;;
66970;SDS011;53901;51.466;-2.588;2022-10-04T02:45:36;5.10;;;2.00;;
66970;SDS011;53901;51.466;-2.588;2022-10-04T02:48:48;3.03;;;1.85;;
66970;SDS011;53901;51.466;-2.588;2022-10-04T02:50:58;4.72;;;2.10;;
66970;SDS011;53901;51.466;-2.588;2022-10-04T02:53:32;3.75;;;1.80;;
66970;SDS011;53901;51.466;-2.588;2022-10-04T02:56:10;3.65;;;2.10;;
66970;SDS011;53901;51.466;-2.588;2022-10-04T02:58:37;4.20;;;1.83;;
66970;SDS011;53901;51.466;-2.588;2022-10-04T03:01:03;2.75;;;1.73;;
66970;SDS011;53901;51.466;-2.588;2022-10-04T03:03:29;3.22;;;1.80;;
66970;SDS011;53901;51.466;-2.588;2022-10-04T03:06:10;3.47;;;1.75;;
66970;SDS011;53901;51.466;-2.588;2022-10-04T03:11:11;3.53;;;1.63;;
66970;SDS011;53901;51.466;-2.588;2022-10-04T03:13:38;3.88;;;1.80;;
66970;SDS011;53901;51.466;-2.588;2022-10-04T03:16:05;5.80;;;1.92;;
66970;SDS011;53901;51.466;-2.588;2022-10-04T03:18:31;3.10;;;1.80;;
66970;SDS011;53901;51.466;-2.588;2022-10-04T03:20:57;4.88;;;1.88;;
66970;SDS011;53901;51.466;-2.588;2022-10-04T03:23:25;7.28;;;1.80;;
66970;SDS011;53901;51.466;-2.588;2022-10-04T03:25:55;3.30;;;2.10;;
66970;SDS011;53901;51.466;-2.588;2022-10-04T03:28:23;3.85;;;1.80;;
66970;SDS011;53901;51.466;-2.588;2022-10-04T03:30:49;2.80;;;1.77;;
66970;SDS011;53901;51.466;-2.588;2022-10-04T03:33:18;3.22;;;2.10;;
66970;SDS011;53901;51.466;-2.588;2022-10-04T03:35:45;5.93;;;1.95;;
66970;SDS011;53901;51.466;-2.588;2022-10-04T03:38:12;3.40;;;2.08;;
66970;SDS011;53901;51.466;-2.588;2022-10-04T03:40:40;4.35;;;2.20;;
66970;SDS011;53901;51.466;-2.588;2022-10-04T03:43:07;5.20;;;2.20;;
66970;SDS011;53901;51.466;-2.588;2022-10-04T03:45:36;3.35;;;1.90;;
66970;SDS011;53901;51.466;-2.588;2022-10-04T03:48:04;4.18;;;2.28;;
66970;SDS011;53901;51.466;-2.588;2022-10-04T03:50:33;3.25;;;2.00;;
66970;SDS011;53901;51.466;-2.588;2022-10-04T03:53:02;4.53;;;1.85;;
66970;SDS011;53901;51.466;-2.588;2022-10-04T03:55:33;4.70;;;2.45;;
66970;SDS011;53901;51.466;-2.588;2022-10-04T03:58:00;5.35;;;2.63;;
66970;SDS011;53901;51.466;-2.588;2022-10-04T04:00:26;2.88;;;2.20;;
66970;SDS011;53901;51.466;-2.588;2022-10-04T04:02:57;4.93;;;2.40;;
66970;SDS011;53901;51.466;-2.588;2022-10-04T04:08:05;3.60;;;1.95;;
66970;SDS011;53901;51.466;-2.588;2022-10-04T04:10:41;6.80;;;2.20;;
66970;SDS011;53901;51.466;-2.588;2022-10-04T04:16:01;4.20;;;1.90;;
66970;SDS011;53901;51.466;-2.588;2022-10-04T04:18:30;2.90;;;1.80;;
66970;SDS011;53901;51.466;-2.588;2022-10-04T04:20:58;4.10;;;1.70;;
66970;SDS011;53901;51.466;-2.588;2022-10-04T04:23:36;2.03;;;1.35;;
66970;SDS011;53901;51.466;-2.588;2022-10-04T04:26:13;2.83;;;1.40;;
66970;SDS011;53901;51.466;-2.588;2022-10-04T04:28:46;2.97;;;1.38;;
66970;SDS011;53901;51.466;-2.588;2022-10-04T04:33:59;3.55;;;1.38;;
66970;SDS011;53901;51.466;-2.588;2022-10-04T04:36:30;1.77;;;1.00;;
66970;SDS011;53901;51.466;-2.588;2022-10-04T04:39:13;2.45;;;1.00;;
66970;SDS011;53901;51.466;-2.588;2022-10-04T04:42:05;3.38;;;1.10;;
66970;SDS011;53901;51.466;-2.588;2022-10-04T04:44:34;5.95;;;1.30;;
66970;SDS011;53901;51.466;-2.588;2022-10-04T04:47:04;2.00;;;0.98;;
66970;SDS011;53901;51.466;-2.588;2022-10-04T04:49:31;2.63;;;1.10;;
66970;SDS011;53901;51.466;-2.588;2022-10-04T04:51:57;1.30;;;1.00;;
66970;SDS011;53901;51.466;-2.588;2022-10-04T04:54:24;2.53;;;1.23;;
66970;SDS011;53901;51.466;-2.588;2022-10-04T04:56:51;2.85;;;1.35;;
66970;SDS011;53901;51.466;-2.588;2022-10-04T04:59:17;2.85;;;1.20;;
66970;SDS011;53901;51.466;-2.588;2022-10-04T05:01:45;2.72;;;1.30;;
66970;SDS011;53901;51.466;-2.588;2022-10-04T05:06:38;2.17;;;1.20;;
66970;SDS011;53901;51.466;-2.588;2022-10-04T05:12:00;2.22;;;1.48;;
66970;SDS011;53901;51.466;-2.588;2022-10-04T05:14:50;3.22;;;1.60;;
66970;SDS011;53901;51.466;-2.588;2022-10-04T05:17:27;2.38;;;1.50;;
66970;SDS011;53901;51.466;-2.588;2022-10-04T05:19:58;2.33;;;1.60;;
66970;SDS011;53901;51.466;-2.588;2022-10-04T05:22:24;3.72;;;1.70;;
66970;SDS011;53901;51.466;-2.588;2022-10-04T05:24:51;3.72;;;1.60;;
66970;SDS011;53901;51.466;-2.588;2022-10-04T05:27:28;3.75;;;1.67;;
66970;SDS011;53901;51.466;-2.588;2022-10-04T05:30:01;5.28;;;1.55;;
66970;SDS011;53901;51.466;-2.588;2022-10-04T05:32:53;6.30;;;1.70;;
66970;SDS011;53901;51.466;-2.588;2022-10-04T05:35:22;5.05;;;2.00;;
66970;SDS011;53901;51.466;-2.588;2022-10-04T05:37:52;3.05;;;2.08;;
66970;SDS011;53901;51.466;-2.588;2022-10-04T05:40:54;2.90;;;1.70;;
66970;SDS011;53901;51.466;-2.588;2022-10-04T05:48:40;2.92;;;1.65;;
66970;SDS011;53901;51.466;-2.588;2022-10-04T05:53:56;7.57;;;2.28;;
66970;SDS011;53901;51.466;-2.588;2022-10-04T05:56:31;4.03;;;2.17;;
66970;SDS011;53901;51.466;-2.588;2022-10-04T06:05:12;5.53;;;2.70;;
66970;SDS011;53901;51.466;-2.588;2022-10-04T06:07:45;7.00;;;2.22;;
66970;SDS011;53901;51.466;-2.588;2022-10-04T06:10:41;5.22;;;2.90;;
66970;SDS011;53901;51.466;-2.588;2022-10-04T06:23:53;10.98;;;3.88;;
66970;SDS011;53901;51.466;-2.588;2022-10-04T06:26:39;6.78;;;3.92;;
66970;SDS011;53901;51.466;-2.588;2022-10-04T06:29:13;5.35;;;3.70;;
66970;SDS011;53901;51.466;-2.588;2022-10-04T06:40:06;7.90;;;4.10;;
66970;SDS011;53901;51.466;-2.588;2022-10-04T06:45:29;7.78;;;3.85;;
66970;SDS011;53901;51.466;-2.588;2022-10-04T06:56:38;6.22;;;3.85;;
66970;SDS011;53901;51.466;-2.588;2022-10-04T07:01:56;5.75;;;3.45;;
66970;SDS011;53901;51.466;-2.588;2022-10-04T07:04:27;11.25;;;3.97;;
66970;SDS011;53901;51.466;-2.588;2022-10-04T07:09:49;6.95;;;3.63;;
66970;SDS011;53901;51.466;-2.588;2022-10-04T07:12:20;6.43;;;3.50;;
66970;SDS011;53901;51.466;-2.588;2022-10-04T07:14:46;5.30;;;3.28;;
66970;SDS011;53901;51.466;-2.588;2022-10-04T07:17:16;5.72;;;3.10;;
66970;SDS011;53901;51.466;-2.588;2022-10-04T07:19:45;5.07;;;2.65;;
66970;SDS011;53901;51.466;-2.588;2022-10-04T07:22:13;5.22;;;2.97;;
66970;SDS011;53901;51.466;-2.588;2022-10-04T07:24:50;9.40;;;3.10;;
66970;SDS011;53901;51.466;-2.588;2022-10-04T07:27:26;5.90;;;2.80;;
66970;SDS011;53901;51.466;-2.588;2022-10-04T07:29:57;4.15;;;2.53;;
66970;SDS011;53901;51.466;-2.588;2022-10-04T07:34:50;5.13;;;2.78;;
66970;SDS011;53901;51.466;-2.588;2022-10-04T07:37:18;5.05;;;2.30;;
66970;SDS011;53901;51.466;-2.588;2022-10-04T07:39:56;7.20;;;2.30;;
66970;SDS011;53901;51.466;-2.588;2022-10-04T07:42:26;5.70;;;2.42;;
66970;SDS011;53901;51.466;-2.588;2022-10-04T07:47:41;2.67;;;2.13;;
66970;SDS011;53901;51.466;-2.588;2022-10-04T07:50:28;5.53;;;2.50;;
66970;SDS011;53901;51.466;-2.588;2022-10-04T07:53:11;2.10;;;1.80;;
66970;SDS011;53901;51.466;-2.588;2022-10-04T07:58:24;3.80;;;2.35;;
66970;SDS011;53901;51.466;-2.588;2022-10-04T08:35:33;3.15;;;1.60;;
66970;SDS011;53901;51.466;-2.588;2022-10-04T08:51:51;3.95;;;0.93;;
66970;SDS011;53901;51.466;-2.588;2022-10-04T08:57:51;2.20;;;0.88;;
66970;SDS011;53901;51.466;-2.588;2022-10-04T09:24:27;4.85;;;0.90;;
66970;SDS011;53901;51.466;-2.588;2022-10-04T09:32:45;1.30;;;0.60;;
66970;SDS011;53901;51.466;-2.588;2022-10-04T09:44:29;2.13;;;0.80;;
66970;SDS011;53901;51.466;-2.588;2022-10-04T09:47:50;5.43;;;1.10;;
66970;SDS011;53901;51.466;-2.588;2022-10-04T09:52:40;3.08;;;0.70;;
66970;SDS011;53901;51.466;-2.588;2022-10-04T10:00:58;1.58;;;0.80;;
66970;SDS011;53901;51.466;-2.588;2022-10-04T10:06:48;1.63;;;0.80;;
66970;SDS011;53901;51.466;-2.588;2022-10-04T10:09:24;1.95;;;0.70;;
66970;SDS011;53901;51.466;-2.588;2022-10-04T10:17:52;2.33;;;0.90;;
66970;SDS011;53901;51.466;-2.588;2022-10-04T10:28:30;2.78;;;0.70;;
66970;SDS011;53901;51.466;-2.588;2022-10-04T10:31:08;1.00;;;0.70;;
66970;SDS011;53901;51.466;-2.588;2022-10-04T10:36:38;7.57;;;2.63;;
66970;SDS011;53901;51.466;-2.588;2022-10-04T10:45:02;1.30;;;0.70;;
66970;SDS011;53901;51.466;-2.588;2022-10-04T11:15:37;2.88;;;1.23;;
66970;SDS011;53901;51.466;-2.588;2022-10-04T11:38:27;1.95;;;1.00;;
66970;SDS011;53901;51.466;-2.588;2022-10-04T11:53:54;3.70;;;1.25;;
66970;SDS011;53901;51.466;-2.588;2022-10-04T11:57:00;4.80;;;1.20;;
66970;SDS011;53901;51.466;-2.588;2022-10-04T12:04:33;4.05;;;2.38;;
66970;SDS011;53901;51.466;-2.588;2022-10-04T12:07:40;2.28;;;0.95;;
66970;SDS011;53901;51.466;-2.588;2022-10-04T12:15:34;2.92;;;1.02;;
66970;SDS011;53901;51.466;-2.588;2022-10-04T12:32:13;3.78;;;1.30;;
66970;SDS011;53901;51.466;-2.588;2022-10-04T12:34:51;5.47;;;1.42;;
66970;SDS011;53901;51.466;-2.588;2022-10-04T12:45:39;6.47;;;1.30;;
66970;SDS011;53901;51.466;-2.588;2022-10-04T12:48:36;8.38;;;2.05;;
66970;SDS011;53901;51.466;-2.588;2022-10-04T12:53:59;3.17;;;1.13;;
66970;SDS011;53901;51.466;-2.588;2022-10-04T13:04:53;5.35;;;1.60;;
66970;SDS011;53901;51.466;-2.588;2022-10-04T13:13:05;4.75;;;1.27;;
66970;SDS011;53901;51.466;-2.588;2022-10-04T13:15:56;1.95;;;1.10;;
66970;SDS011;53901;51.466;-2.588;2022-10-04T13:27:02;3.10;;;1.20;;
66970;SDS011;53901;51.466;-2.588;2022-10-04T13:32:05;2.50;;;0.90;;
66970;SDS011;53901;51.466;-2.588;2022-10-04T13:39:49;6.45;;;1.15;;
66970;SDS011;53901;51.466;-2.588;2022-10-04T13:53:02;4.82;;;1.25;;
66970;SDS011;53901;51.466;-2.588;2022-10-04T13:56:34;7.15;;;1.50;;
66970;SDS011;53901;51.466;-2.588;2022-10-04T13:59:09;5.10;;;1.00;;
66970;SDS011;53901;51.466;-2.588;2022-10-04T14:19:03;6.15;;;1.48;;
66970;SDS011;53901;51.466;-2.588;2022-10-04T14:28:02;3.53;;;1.10;;
66970;SDS011;53901;51.466;-2.588;2022-10-04T14:39:02;5.68;;;1.58;;
66970;SDS011;53901;51.466;-2.588;2022-10-04T14:41:53;7.38;;;1.52;;
66970;SDS011;53901;51.466;-2.588;2022-10-04T14:50:53;6.43;;;1.88;;
66970;SDS011;53901;51.466;-2.588;2022-10-04T14:53:28;8.13;;;1.98;;
66970;SDS011;53901;51.466;-2.588;2022-10-04T14:56:04;5.78;;;2.17;;
66970;SDS011;53901;51.466;-2.588;2022-10-04T14:58:53;6.87;;;2.23;;
66970;SDS011;53901;51.466;-2.588;2022-10-04T15:01:26;4.97;;;1.75;;
66970;SDS011;53901;51.466;-2.588;2022-10-04T15:06:46;10.30;;;2.67;;
66970;SDS011;53901;51.466;-2.588;2022-10-04T15:11:46;7.70;;;1.77;;
66970;SDS011;53901;51.466;-2.588;2022-10-04T15:14:32;13.05;;;2.03;;
66970;SDS011;53901;51.466;-2.588;2022-10-04T15:17:03;7.05;;;1.50;;
66970;SDS011;53901;51.466;-2.588;2022-10-04T15:19:32;10.20;;;2.28;;
66970;SDS011;53901;51.466;-2.588;2022-10-04T15:25:35;7.40;;;1.77;;
66970;SDS011;53901;51.466;-2.588;2022-10-04T15:28:31;5.10;;;1.70;;
66970;SDS011;53901;51.466;-2.588;2022-10-04T15:37:11;8.15;;;1.40;;
66970;SDS011;53901;51.466;-2.588;2022-10-04T15:42:13;7.22;;;1.23;;
66970;SDS011;53901;51.466;-2.588;2022-10-04T15:44:54;5.38;;;1.42;;
66970;SDS011;53901;51.466;-2.588;2022-10-04T16:02:01;2.65;;;0.98;;
66970;SDS011;53901;51.466;-2.588;2022-10-04T16:09:59;4.72;;;1.27;;
66970;SDS011;53901;51.466;-2.588;2022-10-04T16:23:25;10.50;;;1.70;;
66970;SDS011;53901;51.466;-2.588;2022-10-04T16:26:03;5.93;;;1.65;;
66970;SDS011;53901;51.466;-2.588;2022-10-04T16:28:46;7.88;;;2.10;;
66970;SDS011;53901;51.466;-2.588;2022-10-04T16:42:22;6.68;;;1.48;;
66970;SDS011;53901;51.466;-2.588;2022-10-04T16:44:52;6.78;;;1.80;;
66970;SDS011;53901;51.466;-2.588;2022-10-04T16:50:01;5.68;;;1.80;;
66970;SDS011;53901;51.466;-2.588;2022-10-04T17:09:32;8.48;;;1.55;;
66970;SDS011;53901;51.466;-2.588;2022-10-04T17:18:16;10.55;;;2.35;;
66970;SDS011;53901;51.466;-2.588;2022-10-04T17:20:46;7.75;;;1.90;;
66970;SDS011;53901;51.466;-2.588;2022-10-04T17:26:21;10.40;;;2.10;;
66970;SDS011;53901;51.466;-2.588;2022-10-04T17:31:56;11.88;;;2.53;;
66970;SDS011;53901;51.466;-2.588;2022-10-04T17:34:42;9.85;;;2.45;;
66970;SDS011;53901;51.466;-2.588;2022-10-04T17:48:07;8.63;;;2.20;;
66970;SDS011;53901;51.466;-2.588;2022-10-04T17:50:53;7.65;;;2.10;;
66970;SDS011;53901;51.466;-2.588;2022-10-04T17:53:44;9.88;;;2.75;;
66970;SDS011;53901;51.466;-2.588;2022-10-04T17:56:35;9.88;;;2.10;;
66970;SDS011;53901;51.466;-2.588;2022-10-04T17:59:09;8.52;;;2.63;;
66970;SDS011;53901;51.466;-2.588;2022-10-04T18:01:42;6.75;;;1.45;;
66970;SDS011;53901;51.466;-2.588;2022-10-04T18:04:22;6.28;;;1.92;;
66970;SDS011;53901;51.466;-2.588;2022-10-04T18:06:52;9.10;;;2.03;;
66970;SDS011;53901;51.466;-2.588;2022-10-04T18:14:58;10.00;;;2.30;;
66970;SDS011;53901;51.466;-2.588;2022-10-04T18:17:29;9.95;;;2.10;;
66970;SDS011;53901;51.466;-2.588;2022-10-04T18:22:55;10.75;;;2.15;;
66970;SDS011;53901;51.466;-2.588;2022-10-04T18:25:23;11.15;;;2.05;;
66970;SDS011;53901;51.466;-2.588;2022-10-04T18:28:01;16.42;;;2.47;;
66970;SDS011;53901;51.466;-2.588;2022-10-04T18:30:32;4.60;;;1.45;;
66970;SDS011;53901;51.466;-2.588;2022-10-04T18:33:23;8.52;;;1.70;;
66970;SDS011;53901;51.466;-2.588;2022-10-04T18:35:58;13.90;;;2.10;;
66970;SDS011;53901;51.466;-2.588;2022-10-04T18:38:29;10.98;;;2.28;;
66970;SDS011;53901;51.466;-2.588;2022-10-04T18:41:03;10.77;;;2.03;;
66970;SDS011;53901;51.466;-2.588;2022-10-04T18:43:50;8.90;;;2.10;;
66970;SDS011;53901;51.466;-2.588;2022-10-04T18:46:22;10.80;;;2.45;;
66970;SDS011;53901;51.466;-2.588;2022-10-04T18:48:58;9.30;;;2.75;;
66970;SDS011;53901;51.466;-2.588;2022-10-04T19:00:19;12.32;;;2.53;;
66970;SDS011;53901;51.466;-2.588;2022-10-04T19:24:33;11.32;;;2.80;;
66970;SDS011;53901;51.466;-2.588;2022-10-04T19:32:48;11.75;;;2.83;;
66970;SDS011;53901;51.466;-2.588;2022-10-04T19:35:39;9.43;;;2.30;;
66970;SDS011;53901;51.466;-2.588;2022-10-04T19:41:14;12.50;;;3.08;;
66970;SDS011;53901;51.466;-2.588;2022-10-04T19:43:51;11.27;;;3.08;;
66970;SDS011;53901;51.466;-2.588;2022-10-04T19:49:16;11.27;;;2.70;;
66970;SDS011;53901;51.466;-2.588;2022-10-04T19:51:48;11.98;;;2.60;;
66970;SDS011;53901;51.466;-2.588;2022-10-04T19:54:19;5.70;;;1.63;;
66970;SDS011;53901;51.466;-2.588;2022-10-04T19:56:49;11.60;;;2.28;;
66970;SDS011;53901;51.466;-2.588;2022-10-04T19:59:16;10.45;;;2.65;;
66970;SDS011;53901;51.466;-2.588;2022-10-04T20:01:47;13.18;;;2.95;;
66970;SDS011;53901;51.466;-2.588;2022-10-04T20:04:14;8.50;;;2.33;;
66970;SDS011;53901;51.466;-2.588;2022-10-04T20:07:00;16.33;;;2.90;;
66970;SDS011;53901;51.466;-2.588;2022-10-04T20:12:01;13.60;;;2.40;;
66970;SDS011;53901;51.466;-2.588;2022-10-04T20:14:45;14.48;;;3.15;;
66970;SDS011;53901;51.466;-2.588;2022-10-04T20:17:28;11.80;;;3.38;;
66970;SDS011;53901;51.466;-2.588;2022-10-04T20:19:54;15.48;;;6.30;;
66970;SDS011;53901;51.466;-2.588;2022-10-04T20:22:27;8.63;;;2.70;;
66970;SDS011;53901;51.466;-2.588;2022-10-04T20:24:53;11.57;;;2.80;;
66970;SDS011;53901;51.466;-2.588;2022-10-04T20:34:50;9.85;;;2.30;;
66970;SDS011;53901;51.466;-2.588;2022-10-04T20:37:16;8.82;;;1.75;;
66970;SDS011;53901;51.466;-2.588;2022-10-04T20:50:15;7.05;;;2.13;;
66970;SDS011;53901;51.466;-2.588;2022-10-04T20:52:45;7.53;;;1.80;;
66970;SDS011;53901;51.466;-2.588;2022-10-04T20:55:16;7.50;;;1.52;;
66970;SDS011;53901;51.466;-2.588;2022-10-04T20:57:47;7.95;;;2.20;;
66970;SDS011;53901;51.466;-2.588;2022-10-04T21:00:17;8.57;;;2.40;;
66970;SDS011;53901;51.466;-2.588;2022-10-04T21:02:44;5.70;;;1.58;;
66970;SDS011;53901;51.466;-2.588;2022-10-04T21:05:13;10.75;;;1.90;;
66970;SDS011;53901;51.466;-2.588;2022-10-04T21:07:47;7.97;;;1.92;;
66970;SDS011;53901;51.466;-2.588;2022-10-04T21:10:16;11.93;;;2.20;;
66970;SDS011;53901;51.466;-2.588;2022-10-04T21:12:43;8.10;;;1.85;;
66970;SDS011;53901;51.466;-2.588;2022-10-04T21:17:40;4.60;;;1.48;;
66970;SDS011;53901;51.466;-2.588;2022-10-04T21:20:11;10.82;;;2.13;;
66970;SDS011;53901;51.466;-2.588;2022-10-04T21:22:39;6.93;;;1.90;;
66970;SDS011;53901;51.466;-2.588;2022-10-04T21:25:25;8.57;;;1.90;;
66970;SDS011;53901;51.466;-2.588;2022-10-04T21:28:20;10.88;;;2.28;;
66970;SDS011;53901;51.466;-2.588;2022-10-04T21:30:47;10.68;;;2.25;;
66970;SDS011;53901;51.466;-2.588;2022-10-04T21:33:12;8.32;;;1.98;;
66970;SDS011;53901;51.466;-2.588;2022-10-04T21:35:37;9.38;;;1.70;;
66970;SDS011;53901;51.466;-2.588;2022-10-04T21:38:03;8.68;;;2.10;;
66970;SDS011;53901;51.466;-2.588;2022-10-04T21:40:29;8.05;;;2.00;;
66970;SDS011;53901;51.466;-2.588;2022-10-04T21:42:58;13.68;;;2.00;;
66970;SDS011;53901;51.466;-2.588;2022-10-04T21:45:23;7.32;;;2.00;;
66970;SDS011;53901;51.466;-2.588;2022-10-04T21:47:48;8.65;;;1.75;;
66970;SDS011;53901;51.466;-2.588;2022-10-04T21:50:14;12.60;;;2.15;;
66970;SDS011;53901;51.466;-2.588;2022-10-04T21:52:39;11.52;;;2.15;;
66970;SDS011;53901;51.466;-2.588;2022-10-04T21:55:04;8.10;;;2.10;;
66970;SDS011;53901;51.466;-2.588;2022-10-04T21:57:34;6.78;;;2.13;;
66970;SDS011;53901;51.466;-2.588;2022-10-04T21:59:59;9.40;;;2.03;;
66970;SDS011;53901;51.466;-2.588;2022-10-04T22:02:25;8.18;;;1.83;;
66970;SDS011;53901;51.466;-2.588;2022-10-04T22:04:50;10.07;;;2.03;;
66970;SDS011;53901;51.466;-2.588;2022-10-04T22:07:16;9.90;;;1.80;;
66970;SDS011;53901;51.466;-2.588;2022-10-04T22:09:41;10.82;;;2.35;;
66970;SDS011;53901;51.466;-2.588;2022-10-04T22:12:07;7.82;;;2.20;;
66970;SDS011;53901;51.466;-2.588;2022-10-04T22:14:32;10.77;;;1.95;;
66970;SDS011;53901;51.466;-2.588;2022-10-04T22:16:58;8.23;;;2.17;;
66970;SDS011;53901;51.466;-2.588;2022-10-04T22:19:23;5.45;;;1.55;;
66970;SDS011;53901;51.466;-2.588;2022-10-04T22:21:49;8.73;;;1.70;;
66970;SDS011;53901;51.466;-2.588;2022-10-04T22:24:15;7.57;;;1.73;;
66970;SDS011;53901;51.466;-2.588;2022-10-04T22:26:42;9.07;;;1.75;;
66970;SDS011;53901;51.466;-2.588;2022-10-04T22:29:11;10.73;;;1.75;;
66970;SDS011;53901;51.466;-2.588;2022-10-04T22:31:40;10.68;;;1.83;;
66970;SDS011;53901;51.466;-2.588;2022-10-04T22:34:07;6.20;;;1.70;;
66970;SDS011;53901;51.466;-2.588;2022-10-04T22:36:38;15.82;;;2.85;;
66970;SDS011;53901;51.466;-2.588;2022-10-04T22:41:33;9.02;;;2.15;;
66970;SDS011;53901;51.466;-2.588;2022-10-04T22:44:36;11.35;;;2.00;;
66970;SDS011;53901;51.466;-2.588;2022-10-04T22:47:01;6.53;;;1.85;;
66970;SDS011;53901;51.466;-2.588;2022-10-04T22:49:31;14.45;;;2.10;;
66970;SDS011;53901;51.466;-2.588;2022-10-04T22:52:02;7.30;;;1.48;;
66970;SDS011;53901;51.466;-2.588;2022-10-04T22:54:31;10.27;;;2.17;;
66970;SDS011;53901;51.466;-2.588;2022-10-04T22:56:58;10.55;;;1.90;;
66970;SDS011;53901;51.466;-2.588;2022-10-04T22:59:26;12.43;;;2.15;;
66970;SDS011;53901;51.466;-2.588;2022-10-04T23:02:19;6.90;;;1.80;;
66970;SDS011;53901;51.466;-2.588;2022-10-04T23:04:53;8.65;;;2.13;;
66970;SDS011;53901;51.466;-2.588;2022-10-04T23:07:20;9.98;;;1.80;;
66970;SDS011;53901;51.466;-2.588;2022-10-04T23:09:45;7.18;;;1.60;;
66970;SDS011;53901;51.466;-2.588;2022-10-04T23:12:11;9.27;;;1.60;;
66970;SDS011;53901;51.466;-2.588;2022-10-04T23:14:37;11.32;;;1.73;;
66970;SDS011;53901;51.466;-2.588;2022-10-04T23:17:19;8.48;;;1.60;;
66970;SDS011;53901;51.466;-2.588;2022-10-04T23:19:47;10.82;;;1.65;;
66970;SDS011;53901;51.466;-2.588;2022-10-04T23:22:14;6.35;;;1.50;;
66970;SDS011;53901;51.466;-2.588;2022-10-04T23:24:41;7.97;;;1.80;;
66970;SDS011;53901;51.466;-2.588;2022-10-04T23:27:11;7.03;;;1.83;;
66970;SDS011;53901;51.466;-2.588;2022-10-04T23:29:38;7.55;;;1.77;;
66970;SDS011;53901;51.466;-2.588;2022-10-04T23:32:08;8.85;;;1.95;;
66970;SDS011;53901;51.466;-2.588;2022-10-04T23:34:36;6.65;;;1.63;;
66970;SDS011;53901;51.466;-2.588;2022-10-04T23:37:08;8.95;;;1.75;;
66970;SDS011;53901;51.466;-2.588;2022-10-04T23:39:38;14.10;;;2.00;;
66970;SDS011;53901;51.466;-2.588;2022-10-04T23:42:05;10.70;;;1.73;;
66970;SDS011;53901;51.466;-2.588;2022-10-04T23:44:47;10.98;;;1.85;;
66970;SDS011;53901;51.466;-2.588;2022-10-04T23:47:15;11.30;;;2.47;;
66970;SDS011;53901;51.466;-2.588;2022-10-04T23:49:42;6.55;;;1.60;;
66970;SDS011;53901;51.466;-2.588;2022-10-04T23:52:12;8.95;;;1.80;;
66970;SDS011;53901;51.466;-2.588;2022-10-04T23:54:40;14.00;;;2.00;;
66970;SDS011;53901;51.466;-2.588;2022-10-04T23:57:07;11.50;;;2.20;;
66970;SDS011;53901;51.466;-2.588;2022-10-04T23:59:33;14.13;;;1.90;;
